createdAt,value
2019-04-07T00:01:53.557Z,9.45
2019-04-07T00:04:22.509Z,10.65
2019-04-07T00:06:51.168Z,10.10
2019-04-07T00:09:20.463Z,10.45
2019-04-07T00:11:49.725Z,8.43
2019-04-07T00:14:18.326Z,7.10
2019-04-07T00:16:46.851Z,9.80
2019-04-07T00:19:15.665Z,10.15
2019-04-07T00:21:44.447Z,8.80
2019-04-07T00:24:13.594Z,9.10
2019-04-07T00:26:42.863Z,12.50
2019-04-07T00:29:11.512Z,11.15
2019-04-07T00:31:40.071Z,14.18
2019-04-07T00:34:08.610Z,10.40
2019-04-07T00:36:37.789Z,13.60
2019-04-07T00:39:08.220Z,13.15
2019-04-07T00:41:36.750Z,19.12
2019-04-07T00:44:06.115Z,10.63
2019-04-07T00:46:34.653Z,10.78
2019-04-07T00:49:03.217Z,10.30
2019-04-07T00:51:32.042Z,18.12
2019-04-07T00:54:00.694Z,27.40
2019-04-07T00:56:29.365Z,13.53
2019-04-07T00:58:58.840Z,11.20
2019-04-07T01:01:27.439Z,12.33
2019-04-07T01:03:55.958Z,11.80
2019-04-07T01:06:24.422Z,9.73
2019-04-07T01:09:12.353Z,14.15
2019-04-07T01:11:41.119Z,18.20
2019-04-07T01:14:10.225Z,14.50
2019-04-07T01:16:39.526Z,13.28
2019-04-07T01:19:08.656Z,15.88
2019-04-07T01:21:38.124Z,18.37
2019-04-07T01:24:07.269Z,16.48
2019-04-07T01:26:35.862Z,12.82
2019-04-07T01:29:04.619Z,10.78
2019-04-07T01:31:33.271Z,15.80
2019-04-07T01:34:02.146Z,12.53
2019-04-07T01:36:31.636Z,12.20
2019-04-07T01:39:00.759Z,11.08
2019-04-07T01:41:34.909Z,15.95
2019-04-07T01:44:05.724Z,12.40
2019-04-07T01:46:52.481Z,14.98
2019-04-07T01:49:22.733Z,14.20
2019-04-07T01:51:55.606Z,17.55
2019-04-07T01:54:42.374Z,15.90
2019-04-07T01:57:12.495Z,16.20
2019-04-07T01:59:42.664Z,24.75
2019-04-07T02:02:18.938Z,12.60
2019-04-07T02:04:52.134Z,12.70
2019-04-07T02:07:40.081Z,16.10
2019-04-07T02:10:26.171Z,13.13
2019-04-07T02:13:13.130Z,15.10
2019-04-07T02:15:46.054Z,13.22
2019-04-07T02:18:16.380Z,13.58
2019-04-07T02:20:57.783Z,17.45
2019-04-07T02:23:29.130Z,20.23
2019-04-07T02:26:02.373Z,11.05
2019-04-07T02:28:49.520Z,23.15
2019-04-07T02:31:19.790Z,14.65
2019-04-07T02:33:52.767Z,13.08
2019-04-07T02:36:31.273Z,15.03
2019-04-07T02:39:18.054Z,16.65
2019-04-07T02:41:51.728Z,15.68
2019-04-07T02:44:39.752Z,15.15
2019-04-07T02:47:26.324Z,18.10
2019-04-07T02:49:56.566Z,12.82
2019-04-07T02:52:33.196Z,9.98
2019-04-07T02:55:13.019Z,17.48
2019-04-07T02:57:43.257Z,13.93
2019-04-07T03:00:20.478Z,19.55
2019-04-07T03:02:56.298Z,15.30
2019-04-07T03:05:45.550Z,16.90
2019-04-07T03:08:15.968Z,17.10
2019-04-07T03:11:02.000Z,15.43
2019-04-07T03:13:49.030Z,15.55
2019-04-07T03:16:37.566Z,17.57
2019-04-07T03:19:13.863Z,13.08
2019-04-07T03:21:53.061Z,12.15
2019-04-07T03:24:26.632Z,12.47
2019-04-07T03:27:13.492Z,17.27
2019-04-07T03:29:49.788Z,17.32
2019-04-07T03:32:26.278Z,18.42
2019-04-07T03:35:02.826Z,13.72
2019-04-07T03:37:48.871Z,31.00
2019-04-07T03:40:22.348Z,30.70
2019-04-07T03:43:07.368Z,13.53
2019-04-07T03:45:49.993Z,16.27
2019-04-07T03:48:36.982Z,17.60
2019-04-07T03:51:22.480Z,19.48
2019-04-07T03:53:52.677Z,14.23
2019-04-07T03:56:23.203Z,21.60
2019-04-07T03:58:59.894Z,17.15
2019-04-07T04:01:35.842Z,15.25
2019-04-07T04:04:22.359Z,13.70
2019-04-07T04:07:17.860Z,13.35
2019-04-07T04:09:40.802Z,17.45
2019-04-07T04:12:13.595Z,16.75
2019-04-07T04:14:43.783Z,14.03
2019-04-07T04:17:12.986Z,15.30
2019-04-07T04:19:41.566Z,20.23
2019-04-07T04:22:10.096Z,14.25
2019-04-07T04:24:38.638Z,16.07
2019-04-07T04:27:07.179Z,17.12
2019-04-07T04:29:35.698Z,18.12
2019-04-07T04:32:04.322Z,15.65
2019-04-07T04:34:32.982Z,21.27
2019-04-07T04:37:01.819Z,16.35
2019-04-07T04:39:31.337Z,15.53
2019-04-07T04:42:00.043Z,14.95
2019-04-07T04:44:29.420Z,17.30
2019-04-07T04:46:58.421Z,17.00
2019-04-07T04:49:27.115Z,14.25
2019-04-07T04:51:56.072Z,17.92
2019-04-07T04:54:25.822Z,16.17
2019-04-07T04:56:54.435Z,21.93
2019-04-07T04:59:22.968Z,15.03
2019-04-07T05:01:51.503Z,15.75
2019-04-07T05:04:20.743Z,15.03
2019-04-07T05:06:49.393Z,15.03
2019-04-07T05:09:18.087Z,17.73
2019-04-07T05:11:47.169Z,15.90
2019-04-07T05:14:16.432Z,18.80
2019-04-07T05:16:45.053Z,18.00
2019-04-07T05:19:14.173Z,16.67
2019-04-07T05:21:42.831Z,23.73
2019-04-07T05:24:11.508Z,16.93
2019-04-07T05:26:40.547Z,15.03
2019-04-07T05:29:09.346Z,16.77
2019-04-07T05:31:38.685Z,18.55
2019-04-07T05:34:07.393Z,13.28
2019-04-07T05:36:35.926Z,14.83
2019-04-07T05:39:07.438Z,17.00
2019-04-07T05:41:36.323Z,16.15
2019-04-07T05:44:05.537Z,18.70
2019-04-07T05:46:38.640Z,15.13
2019-04-07T05:49:05.393Z,18.40
2019-04-07T05:51:34.214Z,18.73
2019-04-07T05:54:03.559Z,15.83
2019-04-07T05:56:32.216Z,20.95
2019-04-07T05:59:00.731Z,16.35
2019-04-07T06:01:29.276Z,14.13
2019-04-07T06:03:58.006Z,19.23
2019-04-07T06:06:26.900Z,18.32
2019-04-07T06:08:55.511Z,12.63
2019-04-07T06:11:23.982Z,20.08
2019-04-07T06:13:52.930Z,17.02
2019-04-07T06:16:22.475Z,18.62
2019-04-07T06:18:51.127Z,18.77
2019-04-07T06:21:19.619Z,25.08
2019-04-07T06:23:48.597Z,17.50
2019-04-07T06:26:17.510Z,18.60
2019-04-07T06:28:51.146Z,18.42
2019-04-07T06:31:16.408Z,18.25
2019-04-07T06:33:44.955Z,16.65
2019-04-07T06:36:17.616Z,17.55
2019-04-07T06:38:49.824Z,17.85
2019-04-07T06:41:14.639Z,18.42
2019-04-07T06:43:43.192Z,18.37
2019-04-07T06:46:16.544Z,18.95
2019-04-07T06:48:56.039Z,18.23
2019-04-07T06:51:29.207Z,15.53
2019-04-07T06:54:01.185Z,18.30
2019-04-07T06:56:35.131Z,21.45
2019-04-07T06:59:11.859Z,18.60
2019-04-07T07:01:43.788Z,17.48
2019-04-07T07:04:29.055Z,19.00
2019-04-07T07:06:59.225Z,22.37
2019-04-07T07:09:30.662Z,18.80
2019-04-07T07:12:03.998Z,18.03
2019-04-07T07:14:43.709Z,20.13
2019-04-07T07:17:28.627Z,15.60
2019-04-07T07:20:04.231Z,16.40
2019-04-07T07:22:45.589Z,18.33
2019-04-07T07:25:13.177Z,18.77
2019-04-07T07:27:43.000Z,21.20
2019-04-07T07:30:12.130Z,22.80
2019-04-07T07:32:40.958Z,19.23
2019-04-07T07:35:12.589Z,21.83
2019-04-07T07:37:40.109Z,21.33
2019-04-07T07:40:10.018Z,22.33
2019-04-07T07:42:38.716Z,20.03
2019-04-07T07:45:11.847Z,24.60
2019-04-07T07:47:39.097Z,22.03
2019-04-07T07:50:08.703Z,19.33
2019-04-07T07:52:37.698Z,21.63
2019-04-07T07:55:07.341Z,28.43
2019-04-07T07:57:35.811Z,21.07
2019-04-07T08:00:07.295Z,27.17
2019-04-07T08:02:36.469Z,26.03
2019-04-07T08:05:07.207Z,26.53
2019-04-07T08:07:35.923Z,31.57
2019-04-07T08:10:07.473Z,28.20
2019-04-07T08:12:36.109Z,25.77
2019-04-07T08:15:07.087Z,28.10
2019-04-07T08:17:35.716Z,31.17
2019-04-07T08:20:06.761Z,24.20
2019-04-07T08:22:40.602Z,29.47
2019-04-07T08:25:06.260Z,24.00
2019-04-07T08:27:35.296Z,26.17
2019-04-07T08:30:10.137Z,26.37
2019-04-07T08:32:37.059Z,27.90
2019-04-07T08:35:07.917Z,26.47
2019-04-07T08:37:36.591Z,28.63
2019-04-07T08:40:07.711Z,33.20
2019-04-07T08:42:36.965Z,34.93
2019-04-07T08:45:08.144Z,32.70
2019-04-07T08:47:36.714Z,35.73
2019-04-07T08:50:08.448Z,35.50
2019-04-07T08:52:40.567Z,36.00
2019-04-07T08:55:07.636Z,40.73
2019-04-07T08:57:36.972Z,29.60
2019-04-07T09:00:13.145Z,33.83
2019-04-07T09:02:40.014Z,34.83
2019-04-07T09:05:08.887Z,35.40
2019-04-07T09:07:37.928Z,35.30
2019-04-07T09:10:09.383Z,37.90
2019-04-07T09:12:38.066Z,33.87
2019-04-07T09:15:11.553Z,68.97
2019-04-07T09:17:47.424Z,37.20
2019-04-07T09:20:18.058Z,44.37
2019-04-07T09:22:51.642Z,40.37
2019-04-07T09:25:20.421Z,46.73
2019-04-07T09:27:57.208Z,41.70
2019-04-07T09:30:30.746Z,38.80
2019-04-07T09:33:07.106Z,48.50
2019-04-07T09:35:37.682Z,38.93
2019-04-07T09:38:14.376Z,39.17
2019-04-07T09:40:53.164Z,40.27
2019-04-07T09:43:26.225Z,40.97
2019-04-07T09:45:57.240Z,40.37
2019-04-07T09:48:40.549Z,41.07
2019-04-07T09:51:27.527Z,35.40
2019-04-07T09:54:04.122Z,44.07
2019-04-07T09:56:37.537Z,35.87
2019-04-07T09:59:26.159Z,40.60
2019-04-07T10:02:11.520Z,35.67
2019-04-07T10:04:42.544Z,37.50
2019-04-07T10:07:28.351Z,41.70
2019-04-07T10:10:13.754Z,42.63
2019-04-07T10:12:51.760Z,32.53
2019-04-07T10:15:30.566Z,40.23
2019-04-07T10:18:04.110Z,34.83
2019-04-07T10:20:34.306Z,37.37
2019-04-07T10:23:05.173Z,36.57
2019-04-07T10:25:42.233Z,37.07
2019-04-07T10:28:21.359Z,38.43
2019-04-07T10:30:54.994Z,36.70
2019-04-07T10:33:25.406Z,44.23
2019-04-07T10:36:00.082Z,35.53
2019-04-07T10:38:30.361Z,35.13
2019-04-07T10:41:03.467Z,37.77
2019-04-07T10:43:33.856Z,33.50
2019-04-07T10:46:13.590Z,36.57
2019-04-07T10:48:49.952Z,41.23
2019-04-07T10:51:23.084Z,34.70
2019-04-07T10:53:59.096Z,40.77
2019-04-07T10:56:38.680Z,40.63
2019-04-07T10:59:14.907Z,31.40
2019-04-07T11:02:01.392Z,30.27
2019-04-07T11:04:47.424Z,35.70
2019-04-07T11:07:20.482Z,37.07
2019-04-07T11:09:57.560Z,29.10
2019-04-07T11:12:36.818Z,32.97
2019-04-07T11:15:23.887Z,31.47
2019-04-07T11:17:59.599Z,40.27
2019-04-07T11:20:38.772Z,28.90
2019-04-07T11:23:09.714Z,35.80
2019-04-07T11:25:51.775Z,35.30
2019-04-07T11:28:34.242Z,34.90
2019-04-07T11:31:08.072Z,32.70
2019-04-07T11:33:47.320Z,32.90
2019-04-07T11:36:24.459Z,39.27
2019-04-07T11:39:11.939Z,45.23
2019-04-07T11:41:42.487Z,30.20
2019-04-07T11:44:16.102Z,32.10
2019-04-07T11:46:50.875Z,34.40
2019-04-07T11:49:24.689Z,40.50
2019-04-07T11:51:55.540Z,33.23
2019-04-07T11:54:29.497Z,34.30
2019-04-07T11:57:09.777Z,33.47
2019-04-07T11:59:40.141Z,35.67
2019-04-07T12:02:19.781Z,34.53
2019-04-07T12:04:48.990Z,43.13
2019-04-07T12:07:22.881Z,27.70
2019-04-07T12:09:59.652Z,33.97
2019-04-07T12:12:35.899Z,42.20
2019-04-07T12:15:24.198Z,36.57
2019-04-07T12:17:53.419Z,43.20
2019-04-07T12:20:25.686Z,35.00
2019-04-07T12:22:55.528Z,38.10
2019-04-07T12:25:29.362Z,30.97
2019-04-07T12:28:03.491Z,32.37
2019-04-07T12:30:33.858Z,29.07
2019-04-07T12:33:06.518Z,72.67
2019-04-07T12:35:36.540Z,34.40
2019-04-07T12:38:16.494Z,29.97
2019-04-07T12:40:47.032Z,27.10
2019-04-07T12:43:17.402Z,27.23
2019-04-07T12:46:04.110Z,26.83
2019-04-07T12:48:40.918Z,32.07
2019-04-07T12:51:21.584Z,35.23
2019-04-07T12:53:53.782Z,27.10
2019-04-07T12:56:33.892Z,31.20
2019-04-07T12:59:19.199Z,31.53
2019-04-07T13:02:01.419Z,26.27
2019-04-07T13:04:36.387Z,34.20
2019-04-07T13:07:24.702Z,27.57
2019-04-07T13:10:03.315Z,28.30
2019-04-07T13:12:35.452Z,24.07
2019-04-07T13:15:10.966Z,23.47
2019-04-07T13:17:56.313Z,26.67
2019-04-07T13:20:33.305Z,28.23
2019-04-07T13:23:03.506Z,24.90
2019-04-07T13:25:39.644Z,22.43
2019-04-07T13:28:12.902Z,23.33
2019-04-07T13:30:50.009Z,26.77
2019-04-07T13:33:29.585Z,27.43
2019-04-07T13:36:14.970Z,22.77
2019-04-07T13:38:54.493Z,19.77
2019-04-07T13:41:45.870Z,22.43
2019-04-07T13:44:27.180Z,40.67
2019-04-07T13:47:00.700Z,24.10
2019-04-07T13:49:32.802Z,24.60
2019-04-07T13:52:20.805Z,26.53
2019-04-07T13:55:08.830Z,26.50
2019-04-07T13:57:45.057Z,23.13
2019-04-07T14:00:16.878Z,33.93
2019-04-07T14:02:47.848Z,23.53
2019-04-07T14:05:34.224Z,23.03
2019-04-07T14:08:11.393Z,26.37
2019-04-07T14:10:48.217Z,27.10
2019-04-07T14:13:31.187Z,19.63
2019-04-07T14:16:14.283Z,30.10
2019-04-07T14:18:54.136Z,22.80
2019-04-07T14:21:25.106Z,26.17
2019-04-07T14:24:08.191Z,22.90
2019-04-07T14:26:54.283Z,25.60
2019-04-07T14:29:42.532Z,23.03
2019-04-07T14:32:13.111Z,23.53
2019-04-07T14:34:59.519Z,23.57
2019-04-07T14:37:38.686Z,23.50
2019-04-07T14:40:10.733Z,22.57
2019-04-07T14:42:52.940Z,26.60
2019-04-07T14:45:24.112Z,22.23
2019-04-07T14:48:09.838Z,24.07
2019-04-07T14:50:52.653Z,24.13
2019-04-07T14:53:30.256Z,28.13
2019-04-07T14:56:09.991Z,23.27
2019-04-07T14:58:53.864Z,28.67
2019-04-07T15:01:24.128Z,28.27
2019-04-07T15:03:52.659Z,27.20
2019-04-07T15:06:21.743Z,28.20
2019-04-07T15:08:51.956Z,28.77
2019-04-07T15:11:24.947Z,28.50
2019-04-07T15:13:56.930Z,28.27
2019-04-07T15:16:24.055Z,28.67
2019-04-07T15:18:53.353Z,27.07
2019-04-07T15:21:22.179Z,28.97
2019-04-07T15:23:51.685Z,34.10
2019-04-07T15:26:20.414Z,30.07
2019-04-07T15:28:49.230Z,31.17
2019-04-07T15:31:19.466Z,30.00
2019-04-07T15:33:47.931Z,29.10
2019-04-07T15:36:18.776Z,29.73
2019-04-07T15:38:47.562Z,33.77
2019-04-07T15:41:18.227Z,27.67
2019-04-07T15:43:46.396Z,29.50
2019-04-07T15:46:17.759Z,30.53
2019-04-07T15:48:45.387Z,33.37
2019-04-07T15:51:14.423Z,31.73
2019-04-07T15:53:48.471Z,34.50
2019-04-07T15:56:15.727Z,34.30
2019-04-07T15:58:43.450Z,33.53
2019-04-07T16:01:12.049Z,34.80
2019-04-07T16:03:40.582Z,30.90
2019-04-07T16:06:09.681Z,34.07
2019-04-07T16:08:39.476Z,35.33
2019-04-07T16:11:08.443Z,30.53
2019-04-07T16:13:37.166Z,33.57
2019-04-07T16:16:05.865Z,31.50
2019-04-07T16:18:36.971Z,30.23
2019-04-07T16:21:08.765Z,34.03
2019-04-07T16:23:35.202Z,32.57
2019-04-07T16:26:03.792Z,32.20
2019-04-07T16:28:33.065Z,38.77
2019-04-07T16:31:02.662Z,32.43
2019-04-07T16:33:34.699Z,34.77
2019-04-07T16:36:01.577Z,28.80
2019-04-07T16:38:30.357Z,27.67
2019-04-07T16:40:59.010Z,27.63
2019-04-07T16:43:28.654Z,29.60
2019-04-07T16:45:58.391Z,29.00
2019-04-07T16:48:26.874Z,28.20
2019-04-07T16:50:55.627Z,25.70
2019-04-07T16:53:24.830Z,27.63
2019-04-07T16:55:55.503Z,35.93
2019-04-07T16:58:24.334Z,28.70
2019-04-07T17:00:53.679Z,31.50
2019-04-07T17:03:22.162Z,30.27
2019-04-07T17:05:55.711Z,30.63
2019-04-07T17:08:22.523Z,28.40
2019-04-07T17:10:51.150Z,23.93
2019-04-07T17:13:29.005Z,30.93
2019-04-07T17:15:52.009Z,33.80
2019-04-07T17:18:35.598Z,28.20
2019-04-07T17:21:09.402Z,31.30
2019-04-07T17:42:28.360Z,29.20
2019-04-07T17:44:59.338Z,31.10
2019-04-07T17:47:39.327Z,26.50
2019-04-07T17:50:16.840Z,28.97
2019-04-07T17:52:59.027Z,29.70
2019-04-07T17:55:35.092Z,32.47
2019-04-07T17:58:17.254Z,31.00
2019-04-07T18:01:06.291Z,38.53
2019-04-07T18:03:52.815Z,36.93
2019-04-07T18:06:40.343Z,35.40
2019-04-07T18:09:12.846Z,31.47
2019-04-07T18:12:03.408Z,34.43
2019-04-07T18:14:43.698Z,29.33
2019-04-07T18:17:14.034Z,31.03
2019-04-07T18:19:57.451Z,28.73
2019-04-07T18:22:34.588Z,33.10
2019-04-07T18:25:12.120Z,34.33
2019-04-07T18:27:55.414Z,28.83
2019-04-07T18:30:40.801Z,28.77
2019-04-07T18:33:23.399Z,24.07
2019-04-07T18:35:54.092Z,27.00
2019-04-07T18:38:27.507Z,26.33
2019-04-07T18:41:01.674Z,18.53
2019-04-07T18:43:53.788Z,14.07
2019-04-07T18:46:31.518Z,9.77
2019-04-07T18:49:18.062Z,13.53
2019-04-07T18:51:49.453Z,13.40
2019-04-07T18:54:36.680Z,11.27
2019-04-07T18:57:10.439Z,18.73
2019-04-07T18:59:55.566Z,7.60
2019-04-07T19:02:20.323Z,8.97
2019-04-07T19:05:01.604Z,7.17
2019-04-07T19:07:56.154Z,9.03
2019-04-07T19:10:26.883Z,7.43
2019-04-07T19:13:17.591Z,7.93
2019-04-07T19:15:49.984Z,8.43
2019-04-07T19:18:28.959Z,7.90
2019-04-07T19:21:18.270Z,6.67
2019-04-07T19:24:04.421Z,5.63
2019-04-07T19:26:41.058Z,7.30
2019-04-07T19:29:15.153Z,8.03
2019-04-07T19:32:00.508Z,8.37
2019-04-07T19:34:47.212Z,7.80
2019-04-07T19:37:30.391Z,7.07
2019-04-07T19:40:09.483Z,8.20
2019-04-07T19:42:45.932Z,6.20
2019-04-07T19:45:29.165Z,7.90
2019-04-07T19:47:59.409Z,7.50
2019-04-07T19:50:35.650Z,7.77
2019-04-07T19:53:12.952Z,10.33
2019-04-07T19:55:42.930Z,8.23
2019-04-07T19:58:24.935Z,6.70
2019-04-07T20:01:10.565Z,8.03
2019-04-07T20:03:56.156Z,11.23
2019-04-07T20:06:36.274Z,7.97
2019-04-07T20:09:11.333Z,7.00
2019-04-07T20:12:00.582Z,8.30
2019-04-07T20:14:47.575Z,7.10
2019-04-07T20:17:29.441Z,7.10
2019-04-07T20:20:15.485Z,9.23
2019-04-07T20:22:45.675Z,13.97
2019-04-07T20:25:18.488Z,8.73
2019-04-07T20:27:47.868Z,16.20
2019-04-07T20:30:21.554Z,12.67
2019-04-07T20:33:00.717Z,11.23
2019-04-07T20:35:33.733Z,10.60
2019-04-07T20:38:06.528Z,12.20
2019-04-07T20:40:48.375Z,9.63
2019-04-07T20:43:21.727Z,10.13
2019-04-07T20:45:56.351Z,11.57
2019-04-07T20:48:32.598Z,9.50
2019-04-07T20:51:17.880Z,10.30
2019-04-07T20:54:03.924Z,11.00
2019-04-07T20:56:37.283Z,10.83
2019-04-07T20:59:34.537Z,11.17
2019-04-07T21:02:23.200Z,18.37
2019-04-07T21:04:53.445Z,15.63
2019-04-07T21:07:29.946Z,22.73
2019-04-07T21:10:09.522Z,20.10
2019-04-07T21:12:49.545Z,15.27
2019-04-07T21:15:26.018Z,12.43
2019-04-07T21:17:52.422Z,11.83
2019-04-07T21:20:22.638Z,12.27
2019-04-07T21:23:01.741Z,12.73
2019-04-07T21:25:37.646Z,10.70
2019-04-07T21:28:08.685Z,13.37
2019-04-07T21:30:48.411Z,12.53
2019-04-07T21:33:22.397Z,10.67
2019-04-07T21:35:50.507Z,10.80
2019-04-07T21:38:24.271Z,13.10
2019-04-07T21:40:52.887Z,9.70
2019-04-07T21:43:31.906Z,11.87
2019-04-07T21:46:22.392Z,13.40
2019-04-07T21:49:00.198Z,15.43
2019-04-07T21:51:29.582Z,14.00
2019-04-07T21:54:05.701Z,11.83
2019-04-07T21:56:48.123Z,15.83
2019-04-07T21:59:21.522Z,15.83
2019-04-07T22:01:52.897Z,15.30
2019-04-07T22:04:28.565Z,17.27
2019-04-07T22:06:59.555Z,13.77
2019-04-07T22:09:32.627Z,16.63
2019-04-07T22:12:02.007Z,28.93
2019-04-07T22:14:30.967Z,17.43
2019-04-07T22:17:00.464Z,18.10
2019-04-07T22:19:29.819Z,23.17
2019-04-07T22:21:58.434Z,23.83
2019-04-07T22:24:31.280Z,18.77
2019-04-07T22:26:57.323Z,20.90
2019-04-07T22:29:26.635Z,17.83
2019-04-07T22:31:57.683Z,16.87
2019-04-07T22:34:29.834Z,20.90
2019-04-07T22:36:56.616Z,19.30
2019-04-07T22:39:28.838Z,19.83
2019-04-07T22:41:56.979Z,16.33
2019-04-07T22:44:25.588Z,21.40
2019-04-07T22:46:54.439Z,17.40
2019-04-07T22:49:23.350Z,18.73
2019-04-07T22:51:54.155Z,22.27
2019-04-07T22:54:22.294Z,18.07
2019-04-07T22:56:50.859Z,20.70
2019-04-07T22:59:19.694Z,20.83
2019-04-07T23:01:49.342Z,16.63
2019-04-07T23:04:18.230Z,18.20
2019-04-07T23:06:46.828Z,18.20
2019-04-07T23:09:15.573Z,23.07
2019-04-07T23:11:44.224Z,23.63
2019-04-07T23:14:13.605Z,18.13
2019-04-07T23:16:42.351Z,15.70
2019-04-07T23:19:11.060Z,20.33
2019-04-07T23:21:39.688Z,17.57
2019-04-07T23:24:08.340Z,20.30
2019-04-07T23:26:36.932Z,17.37
2019-04-07T23:29:05.810Z,19.83
2019-04-07T23:31:36.291Z,18.53
2019-04-07T23:34:06.295Z,16.60
2019-04-07T23:36:36.107Z,15.10
2019-04-07T23:39:06.996Z,17.73
2019-04-07T23:41:35.539Z,19.73
2019-04-07T23:44:05.910Z,18.73
2019-04-07T23:46:35.803Z,19.00
2019-04-07T23:49:04.554Z,17.00
2019-04-07T23:51:33.170Z,15.90
2019-04-07T23:54:09.247Z,16.60
2019-04-07T23:56:39.420Z,20.40
2019-04-07T23:59:08.726Z,20.57
